Impacts METAR Board
IDs:

KACT - Waco Rgnl, TX, US

Updated at: 0800 UTC 26 May 2019
Potential Impact None Slight Moderate High
Time 25/20Z 25/21Z 25/22Z 25/23Z 26/00Z 26/01Z 26/02Z 26/03Z 26/04Z 26/05Z 26/06Z 26/07Z 26/08Z
Temp92 91 92 91 88 85 83 82 80 78 77 76 74
Dewpt69 68 68 68 67 66 66 66 67 67 67 68 68
Altim30.01 29.98 29.97 29.96 29.95 29.94 29.95 29.97 29.98 30.00 30.01 30.01 30.01
VIS10 10 10 10 10 10 10 10 10 10 10 10 10
CIG55 -- -- -- -- -- -- -- -- -- -- -- --
CoverBKNSCTFEWSCTCLRCLRCLRCLRCLRCLRCLRCLRFEW
FltCatVFRVFRVFRVFRVFRVFRVFRVFRVFRVFRVFRVFRVFR
WX-----------------------RA-RA
WDir160160150150150150160160170180170170160
WSpd12 14 16 16 16 15 15 14 10 12 14 12 12
WGst-- 20 22 -- -- 22 23 -- -- -- -- -- --
Raw hourly METARs
KACT 251951Z 16012KT 10SM SCT044 BKN055 33/21 A3001 RMK AO2 SLP153 T03330206
KACT 252051Z 16014G20KT 10SM FEW044 SCT050 33/20 A2998 RMK AO2 RAB15E51 SLP145 P0000 60000 T03280200 58020
KACT 252151Z 15016G22KT 10SM FEW049 33/20 A2997 RMK AO2 SLP139 T03330200
KACT 252251Z 15016KT 10SM SCT050 33/20 A2996 RMK AO2 SLP135 T03280200
KACT 252351Z 15016KT 10SM CLR 31/19 A2995 RMK AO2 SLP132 60000 T03110194 10333 20306 56013
KACT 260051Z 15015G22KT 10SM CLR 29/19 A2994 RMK AO2 SLP130 T02940189
KACT 260151Z 16015G23KT 10SM CLR 28/19 A2995 RMK AO2 SLP135 T02830189
KACT 260251Z 16014KT 10SM CLR 28/19 A2997 RMK AO2 SLP139 T02780189 53007 $
KACT 260351Z 17010KT 10SM CLR 27/19 A2998 RMK AO2 SLP145 T02670194 $
KACT 260451Z 18012KT 10SM CLR 26/19 A3000 RMK AO2 SLP151 T02560194 $
KACT 260551Z AUTO 17014KT 10SM CLR 25/19 A3001 RMK AO2 SLP155 T02500194 10311 20250 403330222 51016 $
KACT 260651Z AUTO 17012KT 10SM -RA CLR 24/20 A3001 RMK AO2 RAB0554 SLP155 P0000 T02440200 $
KACT 260751Z AUTO 16012KT 10SM -RA FEW018 23/20 A3001 RMK AO2 SLP154 P0000 T02330200 $